createdAt,value
2023-03-23T15:58:24.816Z,99256.00
2023-03-23T16:00:53.714Z,99251.19
2023-03-23T16:03:27.759Z,99244.50
2023-03-23T16:05:56.059Z,99230.22
2023-03-23T16:08:24.284Z,99220.00
2023-03-23T16:10:52.422Z,99234.81
2023-03-23T16:13:20.776Z,99220.72
2023-03-23T16:15:49.340Z,99237.50
2023-03-23T16:18:19.366Z,99239.19
2023-03-23T16:20:49.270Z,99233.47
2023-03-23T16:23:17.155Z,99246.31
2023-03-23T16:25:45.500Z,99239.81
2023-03-23T16:28:14.447Z,99236.16
2023-03-23T16:30:43.509Z,99240.91
2023-03-23T16:33:14.530Z,99222.31
2023-03-23T16:35:43.627Z,99234.94
2023-03-23T16:38:13.925Z,99230.09
2023-03-23T16:40:42.572Z,99227.94
2023-03-23T16:43:10.973Z,99215.19
2023-03-23T16:45:40.501Z,99211.66
2023-03-23T16:48:10.032Z,99220.63
2023-03-23T16:50:38.717Z,99223.66
2023-03-23T16:53:08.335Z,99224.75
2023-03-23T16:55:38.387Z,99236.16
2023-03-23T16:58:16.468Z,99237.16
2023-03-23T17:00:46.891Z,99188.75
2023-03-23T17:03:16.862Z,99219.28
2023-03-23T17:05:45.619Z,99174.44
2023-03-23T17:08:14.024Z,99225.72
2023-03-23T17:10:43.784Z,99221.22
2023-03-23T17:13:11.862Z,99193.94
2023-03-23T17:15:40.130Z,99215.88
2023-03-23T17:18:08.635Z,99225.34
2023-03-23T17:20:37.039Z,99220.47
2023-03-23T17:23:05.791Z,99223.41
2023-03-23T17:25:34.009Z,99233.72
2023-03-23T17:28:06.041Z,99238.31
2023-03-23T17:30:35.094Z,99232.53
2023-03-23T17:33:03.022Z,99229.38
2023-03-23T17:35:31.221Z,99214.69
2023-03-23T17:37:59.651Z,99230.84
2023-03-23T17:40:27.880Z,99233.72
2023-03-23T17:42:56.417Z,99231.06
2023-03-23T17:45:30.460Z,99237.16
2023-03-23T17:47:58.480Z,99235.22
2023-03-23T17:50:26.462Z,99226.22
2023-03-23T17:52:57.114Z,99222.59
2023-03-23T17:55:25.597Z,99216.16
2023-03-23T17:57:53.555Z,99244.88
2023-03-23T18:00:22.300Z,99245.34
2023-03-23T18:02:51.813Z,99238.78
2023-03-23T18:05:20.042Z,99230.19
2023-03-23T18:07:48.079Z,99245.13
2023-03-23T18:10:16.138Z,99243.19
2023-03-23T18:12:44.094Z,99253.97
2023-03-23T18:15:13.335Z,99251.09
2023-03-23T18:17:42.365Z,99247.94
2023-03-23T18:20:11.988Z,99251.81
2023-03-23T18:22:39.937Z,99247.34
2023-03-23T18:25:08.026Z,99250.38
2023-03-23T18:27:36.002Z,99248.56
2023-03-23T18:30:04.026Z,99248.06
2023-03-23T18:32:32.020Z,99246.13
2023-03-23T18:34:59.922Z,99253.91
2023-03-23T18:37:29.914Z,99262.28
2023-03-23T18:39:57.778Z,99255.38
2023-03-23T18:42:26.833Z,99251.84
2023-03-23T18:44:55.140Z,99248.31
2023-03-23T18:47:23.529Z,99248.66
2023-03-23T18:49:55.242Z,99243.81
2023-03-23T18:52:26.085Z,99233.84
2023-03-23T18:54:55.394Z,99243.06
2023-03-23T18:57:23.686Z,99247.81
2023-03-23T18:59:51.853Z,99255.06
2023-03-23T19:02:20.116Z,99258.09
2023-03-23T19:04:48.051Z,99256.91
2023-03-23T19:07:16.638Z,99249.59
2023-03-23T19:09:46.154Z,99262.22
2023-03-23T19:12:16.496Z,99265.97
2023-03-23T19:14:44.831Z,99258.31
2023-03-23T19:17:12.711Z,99264.38
2023-03-23T19:19:43.031Z,99258.16
2023-03-23T19:22:11.693Z,99266.41
2023-03-23T19:24:39.606Z,99255.34
2023-03-23T19:27:08.358Z,99271.84
2023-03-23T19:29:37.925Z,99263.94
2023-03-23T19:32:06.523Z,99269.78
2023-03-23T19:34:34.683Z,99279.09
2023-03-23T19:37:06.061Z,99281.97
2023-03-23T19:39:38.553Z,99283.69
2023-03-23T19:42:07.109Z,99292.66
2023-03-23T19:44:35.278Z,99287.56
2023-03-23T19:47:04.619Z,99294.69
2023-03-23T19:49:32.817Z,99298.66
2023-03-23T19:52:09.021Z,99295.28
2023-03-23T19:54:38.519Z,99310.66
2023-03-23T19:57:06.384Z,99306.53
2023-03-23T19:59:34.808Z,99322.50
2023-03-23T20:02:04.229Z,99309.91
2023-03-23T20:04:32.288Z,99326.03
2023-03-23T20:07:00.577Z,99318.03
2023-03-23T20:09:28.703Z,99302.28
2023-03-23T20:11:57.504Z,99318.44
2023-03-23T20:14:26.545Z,99313.59
2023-03-23T20:16:54.987Z,99306.84
2023-03-23T20:19:24.541Z,99306.31
2023-03-23T20:21:52.982Z,99321.53
2023-03-23T20:24:21.205Z,99328.56
2023-03-23T20:26:49.774Z,99323.13
2023-03-23T20:29:17.655Z,99328.22
2023-03-23T20:31:46.585Z,99329.28
2023-03-23T20:34:17.217Z,99330.13
2023-03-23T20:36:49.023Z,99333.88
2023-03-23T20:39:21.409Z,99328.81
2023-03-23T20:41:50.444Z,99341.50
2023-03-23T20:44:20.031Z,99339.91
2023-03-23T20:46:48.905Z,99339.63
2023-03-23T20:49:17.910Z,99349.09
2023-03-23T20:51:47.541Z,99359.25
2023-03-23T20:54:15.866Z,99364.56
2023-03-23T20:56:43.940Z,99367.97
2023-03-23T20:59:12.069Z,99375.56
2023-03-23T21:01:40.458Z,99379.50
2023-03-23T21:04:15.683Z,99385.47
2023-03-23T21:06:43.716Z,99383.53
2023-03-23T21:09:13.734Z,99378.22
2023-03-23T21:11:42.115Z,99391.19
2023-03-23T21:14:10.269Z,99392.03
2023-03-23T21:16:38.601Z,99393.22
2023-03-23T21:19:07.472Z,99388.53
2023-03-23T21:21:35.988Z,99409.63
2023-03-23T21:24:04.117Z,99405.03
2023-03-23T21:26:34.035Z,99407.59
2023-03-23T21:29:02.043Z,99408.47
2023-03-23T21:31:31.686Z,99419.22
2023-03-23T21:33:59.904Z,99415.94
2023-03-23T21:36:28.162Z,99414.22
2023-03-23T21:38:56.854Z,99414.69
2023-03-23T21:41:25.020Z,99426.94
2023-03-23T21:43:54.761Z,99435.06
2023-03-23T21:46:22.820Z,99436.13
2023-03-23T21:48:51.925Z,99444.22
2023-03-23T21:51:21.568Z,99428.28
2023-03-23T21:53:50.319Z,99449.06
2023-03-23T21:56:18.449Z,99447.56
2023-03-23T21:58:46.329Z,99446.81
2023-03-23T22:01:16.306Z,99452.13
2023-03-23T22:03:44.368Z,99443.81
2023-03-23T22:06:14.315Z,99455.00
2023-03-23T22:08:43.245Z,99453.28
2023-03-23T22:11:12.772Z,99458.75
2023-03-23T22:13:40.747Z,99456.19
2023-03-23T22:16:10.038Z,99469.97
2023-03-23T22:18:39.360Z,99472.00
2023-03-23T22:21:07.794Z,99471.69
2023-03-23T22:23:36.077Z,99480.88
2023-03-23T22:26:04.392Z,99479.69
2023-03-23T22:28:32.661Z,99484.03
2023-03-23T22:31:06.257Z,99479.56
2023-03-23T22:33:34.627Z,99481.06
2023-03-23T22:36:06.699Z,99487.78
2023-03-23T22:38:34.807Z,99474.44
2023-03-23T22:41:04.649Z,99488.97
2023-03-23T22:43:32.827Z,99492.16
2023-03-23T22:46:01.060Z,99485.44
2023-03-23T22:48:29.365Z,99484.16
2023-03-23T22:50:58.477Z,99488.09
2023-03-23T22:53:27.738Z,99480.13
2023-03-23T22:55:56.916Z,99495.66
2023-03-23T22:58:24.971Z,99496.84
2023-03-23T23:00:56.999Z,99491.22
2023-03-23T23:03:25.025Z,99494.19
2023-03-23T23:05:53.140Z,99511.97
2023-03-23T23:08:21.235Z,99516.66
2023-03-23T23:10:51.698Z,99513.34
2023-03-23T23:13:19.889Z,99516.34
2023-03-23T23:15:49.028Z,99518.25
2023-03-23T23:18:17.100Z,99519.41
2023-03-23T23:20:45.385Z,99521.97
2023-03-23T23:23:13.381Z,99528.47
2023-03-23T23:25:41.660Z,99522.69
2023-03-23T23:28:10.957Z,99527.06
2023-03-23T23:30:38.893Z,99528.97
2023-03-23T23:33:07.480Z,99528.34
2023-03-23T23:35:37.024Z,99523.22
2023-03-23T23:38:04.973Z,99540.03
2023-03-23T23:40:33.057Z,99518.94
2023-03-23T23:43:00.938Z,99543.94
2023-03-23T23:45:30.246Z,99545.03
2023-03-23T23:47:58.441Z,99547.69
2023-03-23T23:50:26.516Z,99552.34
2023-03-23T23:52:54.499Z,99557.78
2023-03-23T23:55:22.606Z,99554.47
2023-03-23T23:57:50.540Z,99556.59
